KVRB/VRB METAR and TAF weather

Enter ICAO airport designator
Station Type Date Time Source
KVRB METAR 2020/11/25 21:53 UTC NOAA

KVRB 252153Z 13008KT 10SM SCT065 OVC080 25/18 A3017 RMK AO2 SLP216 T02500178


Station Type Date Time Source
KVRB Decoded METAR 2020/11/25 21:53 UTC NOAA

VERO BEACH MUNICIPAL AIRPORT , FL, United States (KVRB) 27-39N 080-25W 10M
Nov 25, 2020 - 04:53 PM EST / 2020.11.25 2153 UTC
Wind: from the SE (130 degrees) at 9 MPH (8 KT):0
Visibility: 10 mile(s):0
Sky conditions: overcast
Temperature: 77.0 F (25.0 C)
Dew Point: 64.0 F (17.8 C)
Relative Humidity: 64%
Pressure (altimeter): 30.17 in. Hg (1021 hPa)
ob: KVRB 252153Z 13008KT 10SM SCT065 OVC080 25/18 A3017 RMK AO2 SLP216 T02500178
cycle: 22

Station Type Date Time Source
KVRB TAF 2020/11/25 18:36 UTC NOAA

TAF KVRB 251734Z 2518/2618 12012KT P6SM SCT030 BKN070
FM260400 12004KT P6SM FEW050
FM261500 12008KT P6SM SCT050

Example: see airport list